createdAt,value
2019-05-07T00:02:15.452Z,1.90
2019-05-07T00:04:43.256Z,1.90
2019-05-07T00:07:12.895Z,1.80
2019-05-07T00:09:40.134Z,1.80
2019-05-07T00:12:07.705Z,1.70
2019-05-07T00:14:35.961Z,1.70
2019-05-07T00:17:04.591Z,1.60
2019-05-07T00:19:32.512Z,1.60
2019-05-07T00:22:02.280Z,1.60
2019-05-07T00:24:29.565Z,1.60
2019-05-07T00:26:57.129Z,1.60
2019-05-07T00:29:24.699Z,1.70
2019-05-07T00:31:52.264Z,1.70
2019-05-07T00:34:22.022Z,1.70
2019-05-07T00:37:14.414Z,1.70
2019-05-07T00:40:13.015Z,1.60
2019-05-07T00:42:58.726Z,1.60
2019-05-07T00:45:36.940Z,1.50
2019-05-07T00:48:04.515Z,1.40
2019-05-07T00:50:33.991Z,1.40
2019-05-07T00:53:02.149Z,1.40
2019-05-07T00:55:29.822Z,1.40
2019-05-07T00:57:57.393Z,1.40
2019-05-07T01:00:24.927Z,1.50
2019-05-07T01:02:52.665Z,1.50
2019-05-07T01:05:20.416Z,1.50
2019-05-07T01:07:47.969Z,1.50
2019-05-07T01:10:15.717Z,1.50
2019-05-07T01:12:43.285Z,1.40
2019-05-07T01:15:12.879Z,1.30
2019-05-07T01:17:42.404Z,1.20
2019-05-07T01:20:09.666Z,1.20
2019-05-07T01:22:37.186Z,1.20
2019-05-07T01:25:06.225Z,1.30
2019-05-07T01:27:33.769Z,1.30
2019-05-07T01:30:02.523Z,1.30
2019-05-07T01:32:53.266Z,1.30
2019-05-07T01:35:42.300Z,1.40
2019-05-07T01:38:09.779Z,1.50
2019-05-07T01:40:37.300Z,1.60
2019-05-07T01:43:04.870Z,1.60
2019-05-07T01:45:45.852Z,1.70
2019-05-07T01:48:04.240Z,1.60
2019-05-07T01:50:32.275Z,1.60
2019-05-07T01:52:59.965Z,1.60
2019-05-07T01:55:27.534Z,1.50
2019-05-07T01:57:55.268Z,1.50
2019-05-07T02:00:22.796Z,1.40
2019-05-07T02:02:55.700Z,1.30
2019-05-07T02:05:55.091Z,1.30
2019-05-07T02:08:53.945Z,1.20
2019-05-07T02:11:25.600Z,1.20
2019-05-07T02:13:53.160Z,1.00
2019-05-07T02:16:21.858Z,0.90
2019-05-07T02:18:49.533Z,0.80
2019-05-07T02:21:17.264Z,0.70
2019-05-07T02:23:44.797Z,0.60
2019-05-07T02:26:13.341Z,0.60
2019-05-07T02:28:42.611Z,0.60
2019-05-07T02:31:10.582Z,0.50
2019-05-07T02:33:38.112Z,0.50
2019-05-07T02:36:05.625Z,0.50
2019-05-07T02:38:45.610Z,0.60
2019-05-07T02:41:17.085Z,0.70
2019-05-07T02:43:44.589Z,0.70
2019-05-07T02:46:36.338Z,0.80
2019-05-07T02:49:14.320Z,0.70
2019-05-07T02:51:53.196Z,0.70
2019-05-07T02:54:26.033Z,0.70
2019-05-07T02:56:53.790Z,0.60
2019-05-07T02:59:23.317Z,0.50
2019-05-07T03:01:53.462Z,0.50
2019-05-07T03:04:20.319Z,0.50
2019-05-07T03:06:47.859Z,0.40
2019-05-07T03:09:15.398Z,0.40
2019-05-07T03:11:43.620Z,0.30
2019-05-07T03:14:13.986Z,0.30
2019-05-07T03:16:45.467Z,0.40
2019-05-07T03:19:13.090Z,0.30
2019-05-07T03:21:58.886Z,0.20
2019-05-07T03:24:43.512Z,0.20
2019-05-07T03:27:14.033Z,0.20
2019-05-07T03:29:44.206Z,0.20
2019-05-07T03:32:31.726Z,0.20
2019-05-07T03:35:17.239Z,0.10
2019-05-07T03:37:45.085Z,0.10
2019-05-07T03:40:14.223Z,0.10
2019-05-07T03:42:44.051Z,0.10
2019-05-07T03:45:34.163Z,0.10
2019-05-07T03:48:13.724Z,0.00
2019-05-07T03:50:43.063Z,0.00
2019-05-07T03:53:13.900Z,0.00
2019-05-07T03:55:40.187Z,0.00
2019-05-07T03:58:08.219Z,0.00
2019-05-07T04:00:35.940Z,0.00
2019-05-07T04:03:03.809Z,0.00
2019-05-07T04:05:34.204Z,0.00
2019-05-07T04:08:03.288Z,0.00
2019-05-07T04:10:33.465Z,0.00
2019-05-07T04:12:59.674Z,0.00
2019-05-07T04:15:27.212Z,-0.10
2019-05-07T04:17:54.768Z,-0.10
2019-05-07T04:20:23.945Z,-0.10
2019-05-07T04:22:53.556Z,-0.10
2019-05-07T04:25:43.672Z,0.00
2019-05-07T04:28:23.648Z,0.00
2019-05-07T04:30:53.281Z,0.00
2019-05-07T04:33:23.713Z,0.00
2019-05-07T04:36:13.823Z,0.00
2019-05-07T04:38:40.273Z,0.00
2019-05-07T04:41:07.813Z,0.10
2019-05-07T04:43:35.639Z,0.10
2019-05-07T04:46:03.503Z,0.10
2019-05-07T04:48:33.739Z,0.10
2019-05-07T04:51:03.545Z,0.20
2019-05-07T04:53:32.786Z,0.20
2019-05-07T04:56:03.398Z,0.30
2019-05-07T04:58:30.073Z,0.40
2019-05-07T05:00:57.781Z,0.40
2019-05-07T05:03:27.534Z,0.50
2019-05-07T05:05:55.087Z,0.50
2019-05-07T05:08:23.692Z,0.70
2019-05-07T05:10:53.762Z,0.70
2019-05-07T05:13:23.271Z,0.80
2019-05-07T05:15:50.159Z,1.00
2019-05-07T05:18:17.719Z,1.10
2019-05-07T05:21:12.141Z,1.20
2019-05-07T05:24:05.603Z,1.30
2019-05-07T05:26:33.131Z,1.40
2019-05-07T05:29:02.430Z,1.50
2019-05-07T05:31:30.034Z,1.60
2019-05-07T05:33:57.582Z,1.70
2019-05-07T05:36:25.150Z,1.80
2019-05-07T05:38:53.015Z,1.90
2019-05-07T05:41:22.615Z,2.10
2019-05-07T05:44:06.360Z,2.20
2019-05-07T05:46:33.970Z,2.30
2019-05-07T05:49:02.630Z,2.50
2019-05-07T05:51:40.031Z,3.00
2019-05-07T05:54:31.795Z,3.70
2019-05-07T05:57:06.747Z,4.50
2019-05-07T05:59:51.339Z,5.40
2019-05-07T06:02:33.905Z,6.20
2019-05-07T06:05:34.536Z,6.90
2019-05-07T06:08:23.854Z,7.80
2019-05-07T06:11:02.271Z,8.50
2019-05-07T06:13:35.905Z,9.10
2019-05-07T06:16:12.743Z,9.90
2019-05-07T06:19:05.448Z,10.40
2019-05-07T06:21:52.616Z,10.70
2019-05-07T06:24:31.861Z,11.10
2019-05-07T06:26:59.549Z,11.40
2019-05-07T06:29:27.069Z,11.60
2019-05-07T06:32:02.774Z,11.70
2019-05-07T06:34:30.440Z,11.90
2019-05-07T06:36:58.014Z,11.90
2019-05-07T06:39:29.322Z,11.90
2019-05-07T06:42:15.227Z,12.30
2019-05-07T06:44:42.997Z,12.70
2019-05-07T06:47:12.944Z,13.10
2019-05-07T06:49:39.913Z,13.40
2019-05-07T06:52:07.450Z,13.50
2019-05-07T06:54:35.163Z,13.70
2019-05-07T06:57:02.918Z,13.70
2019-05-07T06:59:53.129Z,13.90
2019-05-07T07:02:41.931Z,14.10
2019-05-07T07:05:17.571Z,14.20
2019-05-07T07:07:49.748Z,14.20
2019-05-07T07:10:32.265Z,14.60
2019-05-07T07:13:02.272Z,14.90
2019-05-07T07:15:29.337Z,15.10
2019-05-07T07:17:56.902Z,15.20
2019-05-07T07:20:24.503Z,15.50
2019-05-07T07:22:52.143Z,15.70
2019-05-07T07:25:19.641Z,16.00
2019-05-07T07:27:47.183Z,16.00
2019-05-07T07:30:26.414Z,16.20
2019-05-07T07:32:54.022Z,16.60
2019-05-07T07:35:22.559Z,16.80
2019-05-07T07:37:50.222Z,16.90
2019-05-07T07:40:38.070Z,17.30
2019-05-07T07:43:07.156Z,17.50
2019-05-07T07:45:35.123Z,17.90
2019-05-07T07:48:02.670Z,18.20
2019-05-07T07:50:30.219Z,18.30
2019-05-07T07:52:57.789Z,18.10
2019-05-07T07:55:33.035Z,17.60
2019-05-07T07:58:12.063Z,17.40
2019-05-07T08:00:56.262Z,17.30
2019-05-07T08:03:23.843Z,17.20
2019-05-07T08:05:51.886Z,17.00
2019-05-07T08:08:21.823Z,17.30
2019-05-07T08:10:48.857Z,17.20
2019-05-07T08:13:16.401Z,17.60
2019-05-07T08:15:43.928Z,17.70
2019-05-07T08:18:12.128Z,17.70
2019-05-07T08:20:39.803Z,17.90
2019-05-07T08:23:07.335Z,18.10
2019-05-07T08:25:47.088Z,18.50
2019-05-07T08:28:14.991Z,18.80
2019-05-07T08:30:44.337Z,18.80
2019-05-07T08:33:19.570Z,18.70
2019-05-07T08:36:06.720Z,18.60
2019-05-07T08:38:48.825Z,18.40
2019-05-07T08:41:16.611Z,17.60
2019-05-07T08:43:44.185Z,17.10
2019-05-07T08:46:46.292Z,17.40
2019-05-07T08:49:14.572Z,17.80
2019-05-07T08:51:42.650Z,17.40
2019-05-07T08:54:12.153Z,16.90
2019-05-07T08:56:39.771Z,17.00
2019-05-07T08:59:07.441Z,17.60
2019-05-07T09:01:36.424Z,18.00
2019-05-07T09:04:04.207Z,18.60
2019-05-07T09:06:35.257Z,19.30
2019-05-07T09:09:09.086Z,19.60
2019-05-07T09:11:36.631Z,19.80
2019-05-07T09:14:04.313Z,18.80
2019-05-07T09:16:32.010Z,17.50
2019-05-07T09:18:59.590Z,16.10
2019-05-07T09:21:27.128Z,15.40
2019-05-07T09:23:54.690Z,14.80
2019-05-07T09:26:28.009Z,13.70
2019-05-07T09:29:02.684Z,13.30
2019-05-07T09:31:39.186Z,13.20
2019-05-07T09:34:06.731Z,13.10
2019-05-07T09:36:42.434Z,12.80
2019-05-07T09:39:11.940Z,12.70
2019-05-07T09:41:39.355Z,12.70
2019-05-07T09:44:06.921Z,12.60
2019-05-07T09:46:34.600Z,12.50
2019-05-07T09:49:03.082Z,12.50
2019-05-07T09:51:32.151Z,12.50
2019-05-07T09:54:02.394Z,12.50
2019-05-07T09:56:29.328Z,12.60
2019-05-07T09:58:56.979Z,12.60
2019-05-07T10:01:24.807Z,12.80
2019-05-07T10:03:52.352Z,13.00
2019-05-07T10:06:19.889Z,13.30
2019-05-07T10:08:47.483Z,13.40
2019-05-07T10:11:22.552Z,13.20
2019-05-07T10:14:01.936Z,13.10
2019-05-07T10:16:44.966Z,13.10
2019-05-07T10:19:12.574Z,13.50
2019-05-07T10:21:42.426Z,14.20
2019-05-07T10:24:09.433Z,14.60
2019-05-07T10:26:43.099Z,15.50
2019-05-07T10:29:12.443Z,15.80
2019-05-07T10:31:42.252Z,16.30
2019-05-07T10:34:09.509Z,17.10
2019-05-07T10:36:37.072Z,17.20
2019-05-07T10:39:05.964Z,17.50
2019-05-07T10:41:34.519Z,17.70
2019-05-07T10:44:02.553Z,18.10
2019-05-07T10:47:05.230Z,18.50
2019-05-07T10:49:39.143Z,19.30
2019-05-07T10:52:06.776Z,20.00
2019-05-07T10:54:34.652Z,20.60
2019-05-07T10:57:02.179Z,20.40
2019-05-07T10:59:29.707Z,20.20
2019-05-07T11:02:06.681Z,19.80
2019-05-07T11:04:42.652Z,18.90
2019-05-07T11:07:04.166Z,18.10
2019-05-07T11:09:32.804Z,17.80
2019-05-07T11:12:02.419Z,18.20
2019-05-07T11:14:32.020Z,18.80
2019-05-07T11:17:15.437Z,19.40
2019-05-07T11:19:43.028Z,20.20
2019-05-07T11:22:11.613Z,19.90
2019-05-07T11:24:39.328Z,20.00
2019-05-07T11:27:11.783Z,19.30
2019-05-07T11:29:39.017Z,18.30
2019-05-07T11:32:06.560Z,17.60
2019-05-07T11:34:36.065Z,17.10
2019-05-07T11:37:03.712Z,17.40
2019-05-07T11:39:33.075Z,17.40
2019-05-07T11:42:35.143Z,17.40
2019-05-07T11:45:02.796Z,17.60
2019-05-07T11:47:32.063Z,17.90
2019-05-07T11:50:17.845Z,16.90
2019-05-07T11:52:51.758Z,16.30
2019-05-07T11:55:19.541Z,15.70
2019-05-07T11:57:47.095Z,15.40
2019-05-07T12:00:27.966Z,14.80
2019-05-07T12:02:55.520Z,14.40
2019-05-07T12:05:23.061Z,14.30
2019-05-07T12:07:50.642Z,14.30
2019-05-07T12:10:18.223Z,14.30
2019-05-07T12:12:48.824Z,14.20
2019-05-07T12:15:16.957Z,14.10
2019-05-07T12:17:44.517Z,14.00
2019-05-07T12:20:12.796Z,14.10
2019-05-07T12:22:46.522Z,14.10
2019-05-07T12:25:15.046Z,14.00
2019-05-07T12:27:42.625Z,14.10
2019-05-07T12:30:12.267Z,14.20
2019-05-07T12:32:57.518Z,14.30
2019-05-07T12:35:25.103Z,14.60
2019-05-07T12:37:52.657Z,15.00
2019-05-07T12:40:22.406Z,15.40
2019-05-07T12:42:50.115Z,15.90
2019-05-07T12:45:17.902Z,16.70
2019-05-07T12:47:45.480Z,17.40
2019-05-07T12:50:13.130Z,17.60
2019-05-07T12:53:02.184Z,17.50
2019-05-07T12:55:42.925Z,17.40
2019-05-07T12:58:12.488Z,17.20
2019-05-07T13:01:00.700Z,17.00
2019-05-07T13:03:34.841Z,16.60
2019-05-07T13:06:02.949Z,16.10
2019-05-07T13:08:32.739Z,15.90
2019-05-07T13:10:59.881Z,15.60
2019-05-07T13:13:27.472Z,15.50
2019-05-07T13:15:55.014Z,15.30
2019-05-07T13:18:22.782Z,15.50
2019-05-07T13:20:51.899Z,15.90
2019-05-07T13:23:19.641Z,16.50
2019-05-07T13:25:47.606Z,16.40
2019-05-07T13:28:15.140Z,16.20
2019-05-07T13:30:43.929Z,16.40
2019-05-07T13:33:14.282Z,17.00
2019-05-07T13:35:44.386Z,17.60
2019-05-07T13:38:32.514Z,17.90
2019-05-07T13:41:14.377Z,17.30
2019-05-07T13:44:08.158Z,16.50
2019-05-07T13:46:36.423Z,16.40
2019-05-07T13:49:04.177Z,16.20
2019-05-07T13:51:33.724Z,16.30
2019-05-07T13:54:02.089Z,16.60
2019-05-07T13:56:29.820Z,16.50
2019-05-07T13:58:57.358Z,16.00
2019-05-07T14:01:46.342Z,15.80
2019-05-07T14:04:13.910Z,15.60
2019-05-07T14:06:43.041Z,15.10
2019-05-07T14:09:18.742Z,15.10
2019-05-07T14:11:46.398Z,15.00
2019-05-07T14:14:14.026Z,15.00
2019-05-07T14:16:42.469Z,15.00
2019-05-07T14:19:12.934Z,15.00
2019-05-07T14:21:42.164Z,15.20
2019-05-07T14:24:12.316Z,15.20
2019-05-07T14:26:39.261Z,15.20
2019-05-07T14:29:06.790Z,15.20
2019-05-07T14:31:34.465Z,15.30
2019-05-07T14:34:08.041Z,15.30
2019-05-07T14:36:44.202Z,15.40
2019-05-07T14:39:11.736Z,15.60
2019-05-07T14:41:39.236Z,15.80
2019-05-07T14:44:14.179Z,16.10
2019-05-07T14:46:50.408Z,16.30
2019-05-07T14:49:12.053Z,16.70
2019-05-07T14:51:39.764Z,17.10
2019-05-07T14:54:07.393Z,17.50
2019-05-07T14:56:35.402Z,17.70
2019-05-07T14:59:03.198Z,17.90
2019-05-07T15:01:30.964Z,18.00
2019-05-07T15:03:58.829Z,18.30
2019-05-07T15:06:26.475Z,18.50
2019-05-07T15:08:54.314Z,18.20
2019-05-07T15:11:21.921Z,18.50
2019-05-07T15:13:49.448Z,18.70
2019-05-07T15:16:17.319Z,19.00
2019-05-07T15:18:57.914Z,18.70
2019-05-07T15:21:25.564Z,18.40
2019-05-07T15:23:53.726Z,18.00
2019-05-07T15:26:22.048Z,17.40
2019-05-07T15:28:55.289Z,16.70
2019-05-07T15:31:42.438Z,16.40
2019-05-07T15:34:12.240Z,16.10
2019-05-07T15:36:39.550Z,16.10
2019-05-07T15:39:07.219Z,15.90
2019-05-07T15:41:34.833Z,15.90
2019-05-07T15:44:02.804Z,15.80
2019-05-07T15:46:32.230Z,15.70
2019-05-07T15:49:01.778Z,15.60
2019-05-07T15:51:29.226Z,15.50
2019-05-07T15:53:57.838Z,15.50
2019-05-07T15:56:25.403Z,15.80
2019-05-07T15:58:52.927Z,15.80
2019-05-07T16:01:22.215Z,15.60
2019-05-07T16:03:52.085Z,15.80
2019-05-07T16:06:19.193Z,15.90
2019-05-07T16:08:59.682Z,16.40
2019-05-07T16:11:27.233Z,16.80
2019-05-07T16:14:14.666Z,17.10
2019-05-07T16:16:45.036Z,17.10
2019-05-07T16:19:17.021Z,17.30
2019-05-07T16:21:44.540Z,17.50
2019-05-07T16:24:12.250Z,17.10
2019-05-07T16:26:41.935Z,16.70
2019-05-07T16:29:09.208Z,16.70
2019-05-07T16:31:36.868Z,16.90
2019-05-07T16:34:04.422Z,17.20
2019-05-07T16:36:32.861Z,17.50
2019-05-07T16:39:03.239Z,17.60
2019-05-07T16:41:31.778Z,17.50
2019-05-07T16:43:59.479Z,17.50
2019-05-07T16:46:27.057Z,17.30
2019-05-07T16:48:55.715Z,17.30
2019-05-07T16:51:23.191Z,17.10
2019-05-07T16:53:52.393Z,16.80
2019-05-07T16:56:20.136Z,16.70
2019-05-07T16:58:52.347Z,16.10
2019-05-07T17:01:19.899Z,16.00
2019-05-07T17:03:54.398Z,15.70
2019-05-07T17:06:22.441Z,15.40
2019-05-07T17:08:56.317Z,15.20
2019-05-07T17:11:23.946Z,14.90
2019-05-07T17:13:51.951Z,14.70
2019-05-07T17:16:19.700Z,14.70
2019-05-07T17:18:47.245Z,14.60
2019-05-07T17:21:14.830Z,14.50
2019-05-07T17:23:44.605Z,14.70
2019-05-07T17:26:11.850Z,14.70
2019-05-07T17:28:39.599Z,14.90
2019-05-07T17:31:07.121Z,15.00
2019-05-07T17:33:34.740Z,14.90
2019-05-07T17:36:02.555Z,14.80
2019-05-07T17:38:32.182Z,14.70
2019-05-07T17:41:12.902Z,14.40
2019-05-07T17:43:29.188Z,14.10
2019-05-07T17:45:56.765Z,13.70
2019-05-07T17:48:24.335Z,13.40
2019-05-07T17:51:23.439Z,13.10
2019-05-07T17:53:59.350Z,12.90
2019-05-07T17:56:22.320Z,12.60
2019-05-07T17:58:52.115Z,12.30
2019-05-07T18:01:33.140Z,12.00
2019-05-07T18:04:02.472Z,11.80
2019-05-07T18:06:32.796Z,11.60
2019-05-07T18:09:02.719Z,11.50
2019-05-07T18:11:29.693Z,11.40
2019-05-07T18:13:57.440Z,11.20
2019-05-07T18:16:48.572Z,11.10
2019-05-07T18:19:16.346Z,11.00
2019-05-07T18:21:44.074Z,10.80
2019-05-07T18:24:16.377Z,10.70
2019-05-07T18:26:42.341Z,10.60
2019-05-07T18:29:11.809Z,10.50
2019-05-07T18:31:51.998Z,10.30
2019-05-07T18:34:19.561Z,10.00
2019-05-07T18:36:47.222Z,9.80
2019-05-07T18:39:14.898Z,9.80
2019-05-07T18:41:42.466Z,9.60
2019-05-07T18:44:13.488Z,9.50
2019-05-07T18:46:39.545Z,9.40
2019-05-07T18:49:07.140Z,9.30
2019-05-07T18:51:34.905Z,9.10
2019-05-07T18:54:02.557Z,9.00
2019-05-07T18:56:30.221Z,8.80
2019-05-07T18:58:59.654Z,8.70
2019-05-07T19:01:32.728Z,8.70
2019-05-07T19:04:02.036Z,8.60
2019-05-07T19:06:31.671Z,8.60
2019-05-07T19:08:59.016Z,8.60
2019-05-07T19:11:26.780Z,8.50
2019-05-07T19:13:56.115Z,8.40
2019-05-07T19:16:23.782Z,8.30
2019-05-07T19:18:51.378Z,8.30
2019-05-07T19:21:19.137Z,8.10
2019-05-07T19:23:46.723Z,8.10
2019-05-07T19:26:14.278Z,8.00
2019-05-07T19:28:41.874Z,7.90
2019-05-07T19:31:09.465Z,7.80
2019-05-07T19:33:37.085Z,7.70
2019-05-07T19:36:04.761Z,7.60
2019-05-07T19:38:32.471Z,7.40
2019-05-07T19:41:02.041Z,7.30
2019-05-07T19:43:29.437Z,7.20
2019-05-07T19:45:57.045Z,7.20
2019-05-07T19:48:24.676Z,7.00
2019-05-07T19:50:52.917Z,6.90
2019-05-07T19:53:23.277Z,6.80
2019-05-07T19:56:09.820Z,4.20
2019-05-07T19:58:37.415Z,6.80
2019-05-07T20:01:06.171Z,6.80
2019-05-07T20:03:33.769Z,6.70
2019-05-07T20:06:02.398Z,6.60
2019-05-07T20:08:32.283Z,6.60
2019-05-07T20:11:05.041Z,6.50
2019-05-07T20:13:32.870Z,6.50
2019-05-07T20:16:09.254Z,6.50
2019-05-07T20:18:37.137Z,6.50
2019-05-07T20:21:04.823Z,6.50
2019-05-07T20:23:32.802Z,6.40
2019-05-07T20:26:02.797Z,6.40
2019-05-07T20:28:32.352Z,6.30
2019-05-07T20:30:59.415Z,6.20
2019-05-07T20:33:27.226Z,6.20
2019-05-07T20:35:54.834Z,6.00
2019-05-07T20:38:22.485Z,6.00
2019-05-07T20:40:52.038Z,5.80
2019-05-07T20:43:19.415Z,5.70
2019-05-07T20:45:46.988Z,5.70
2019-05-07T20:48:14.547Z,5.60
2019-05-07T20:50:42.475Z,5.50
2019-05-07T20:53:10.530Z,5.50
2019-05-07T20:55:43.242Z,5.50
2019-05-07T20:58:12.765Z,5.40
2019-05-07T21:00:40.371Z,5.40
2019-05-07T21:03:20.214Z,5.30
2019-05-07T21:05:50.129Z,5.30
2019-05-07T21:08:17.717Z,5.20
2019-05-07T21:10:45.274Z,5.20
2019-05-07T21:13:26.950Z,5.10
2019-05-07T21:15:42.228Z,5.00
2019-05-07T21:18:12.128Z,5.00
2019-05-07T21:20:39.336Z,4.90
2019-05-07T21:23:06.910Z,4.90
2019-05-07T21:25:42.699Z,4.90
2019-05-07T21:28:04.095Z,4.90
2019-05-07T21:30:32.851Z,4.90
2019-05-07T21:33:00.447Z,4.80
2019-05-07T21:35:28.216Z,4.80
2019-05-07T21:37:55.787Z,4.70
2019-05-07T21:40:23.354Z,4.70
2019-05-07T21:42:52.082Z,4.60
2019-05-07T21:45:23.605Z,4.50
2019-05-07T21:47:49.110Z,4.40
2019-05-07T21:50:16.690Z,4.30
2019-05-07T21:52:48.858Z,4.20
2019-05-07T21:55:37.977Z,4.30
2019-05-07T21:58:25.069Z,4.20
2019-05-07T22:01:32.767Z,4.30
2019-05-07T22:04:01.911Z,4.30
2019-05-07T22:06:29.784Z,4.20
2019-05-07T22:08:57.334Z,4.10
2019-05-07T22:11:24.974Z,4.00
2019-05-07T22:13:54.723Z,4.10
2019-05-07T22:16:22.296Z,4.00
2019-05-07T22:18:52.038Z,4.00
2019-05-07T22:21:19.443Z,3.90
2019-05-07T22:23:46.978Z,3.80
2019-05-07T22:26:22.978Z,3.80
2019-05-07T22:28:43.902Z,3.80
2019-05-07T22:31:23.258Z,3.80
2019-05-07T22:34:22.339Z,3.70
2019-05-07T22:36:49.873Z,3.70
2019-05-07T22:39:19.200Z,3.80
2019-05-07T22:41:46.762Z,3.80
2019-05-07T22:44:14.281Z,3.80
2019-05-07T22:46:42.287Z,3.70
2019-05-07T22:49:12.093Z,3.60
2019-05-07T22:51:39.311Z,3.60
2019-05-07T22:54:06.888Z,3.60
2019-05-07T22:56:52.540Z,3.50
2019-05-07T22:59:22.490Z,3.40
2019-05-07T23:01:51.662Z,3.30
2019-05-07T23:04:19.036Z,3.30
2019-05-07T23:06:46.587Z,3.30
2019-05-07T23:09:14.122Z,3.20
2019-05-07T23:11:41.690Z,3.30
2019-05-07T23:14:09.224Z,3.30
2019-05-07T23:16:36.768Z,3.30
2019-05-07T23:19:04.317Z,3.30
2019-05-07T23:21:32.058Z,3.30
2019-05-07T23:23:59.557Z,3.40
2019-05-07T23:26:27.116Z,3.30
2019-05-07T23:28:54.683Z,3.40
2019-05-07T23:31:22.882Z,3.30
2019-05-07T23:33:52.368Z,3.30
2019-05-07T23:36:22.487Z,3.40
2019-05-07T23:38:51.870Z,3.40
2019-05-07T23:41:32.937Z,3.50
2019-05-07T23:44:12.403Z,3.50
2019-05-07T23:46:39.815Z,3.50
2019-05-07T23:49:07.353Z,3.50
2019-05-07T23:51:35.338Z,3.50
2019-05-07T23:54:02.973Z,3.50
2019-05-07T23:56:32.765Z,3.50
2019-05-07T23:58:59.823Z,3.40
